Time,TemperatureF,DewpointF,PressureIn,WindDirection,WindDirectionDegrees,WindSpeedMPH,WindSpeedGustMPH,Humidity,HourlyPrecipIn,Conditions,Clouds,dailyrainin,SolarRadiationWatts/m^2,SoftwareType,DateUTC
2013-01-01 08:16:00,28.5,22.0,30.28,NNE,32,4.0,5.0,78,0.00,,,0.00,162,weatherlink.com 1.10,2013-01-01 15:16:00,
2013-01-01 08:21:00,29.4,23.0,30.28,NNE,32,4.0,5.0,76,0.00,,,0.00,179,weatherlink.com 1.10,2013-01-01 15:21:00,
2013-01-01 08:36:00,31.7,24.0,30.29,NNW,345,5.0,7.0,73,0.00,,,0.00,229,weatherlink.com 1.10,2013-01-01 15:36:00,
2013-01-01 08:51:00,33.0,24.0,30.29,NNW,332,4.0,9.0,69,0.00,,,0.00,274,weatherlink.com 1.10,2013-01-01 15:51:00,
2013-01-01 09:06:00,34.0,24.0,30.30,NW,317,3.0,8.0,66,0.00,,,0.00,308,weatherlink.com 1.10,2013-01-01 16:06:00,
2013-01-01 09:21:00,34.9,23.0,30.30,NW,305,7.0,9.0,62,0.00,,,0.00,348,weatherlink.com 1.10,2013-01-01 16:21:00,
2013-01-01 09:36:00,36.1,22.0,30.30,NNW,342,6.0,11.0,56,0.00,,,0.00,381,weatherlink.com 1.10,2013-01-01 16:36:00,
2013-01-01 09:51:00,36.9,21.0,30.31,NW,313,8.0,12.0,52,0.00,,,0.00,418,weatherlink.com 1.10,2013-01-01 16:51:00,
2013-01-01 10:06:00,37.5,21.0,30.31,NW,310,5.0,12.0,51,0.00,,,0.00,450,weatherlink.com 1.10,2013-01-01 17:06:00,
2013-01-01 10:21:00,37.8,21.0,30.31,NW,311,9.0,12.0,50,0.00,,,0.00,476,weatherlink.com 1.10,2013-01-01 17:21:00,
2013-01-01 10:36:00,38.1,20.0,30.30,NW,321,9.0,12.0,49,0.00,,,0.00,504,weatherlink.com 1.10,2013-01-01 17:36:00,
2013-01-01 10:51:00,38.5,20.0,30.32,WNW,300,10.0,13.0,48,0.00,,,0.00,526,weatherlink.com 1.10,2013-01-01 17:51:00,
2013-01-01 11:07:00,38.9,21.0,30.30,WNW,303,7.0,11.0,48,0.00,,,0.00,545,weatherlink.com 1.10,2013-01-01 18:07:00,
2013-01-01 11:22:00,39.0,21.0,30.28,NW,317,8.0,12.0,49,0.00,,,0.00,557,weatherlink.com 1.10,2013-01-01 18:22:00,
2013-01-01 11:37:00,39.7,20.0,30.28,NNW,331,6.0,9.0,45,0.00,,,0.00,568,weatherlink.com 1.10,2013-01-01 18:37:00,
2013-01-01 11:52:00,40.0,19.0,30.28,NW,316,4.0,10.0,43,0.00,,,0.00,577,weatherlink.com 1.10,2013-01-01 18:52:00,
2013-01-01 12:07:00,40.0,18.0,30.27,WNW,291,5.0,9.0,42,0.00,,,0.00,578,weatherlink.com 1.10,2013-01-01 19:07:00,
2013-01-01 12:22:00,40.8,19.0,30.26,WNW,289,1.0,7.0,41,0.00,,,0.00,578,weatherlink.com 1.10,2013-01-01 19:22:00,
2013-01-01 12:37:00,41.6,19.0,30.25,WNW,289,0.0,2.0,40,0.00,,,0.00,575,weatherlink.com 1.10,2013-01-01 19:37:00,
2013-01-01 12:52:00,42.4,18.0,30.24,West,275,4.0,6.0,38,0.00,,,0.00,568,weatherlink.com 1.10,2013-01-01 19:52:00,
2013-01-01 13:07:00,43.1,18.0,30.23,WSW,256,2.0,5.0,37,0.00,,,0.00,555,weatherlink.com 1.10,2013-01-01 20:07:00,
2013-01-01 13:22:00,43.2,18.0,30.23,WSW,245,0.0,6.0,36,0.00,,,0.00,536,weatherlink.com 1.10,2013-01-01 20:22:00,
2013-01-01 13:37:00,42.9,17.0,30.22,WNW,286,4.0,9.0,36,0.00,,,0.00,522,weatherlink.com 1.10,2013-01-01 20:37:00,
2013-01-01 13:52:00,43.9,20.0,30.22,SSW,194,5.0,12.0,38,0.00,,,0.00,494,weatherlink.com 1.10,2013-01-01 20:52:00,
2013-01-01 14:07:00,43.7,19.0,30.22,SE,138,6.0,12.0,38,0.00,,,0.00,469,weatherlink.com 1.10,2013-01-01 21:07:00,
2013-01-01 14:22:00,43.8,19.0,30.22,SSW,201,6.0,11.0,37,0.00,,,0.00,443,weatherlink.com 1.10,2013-01-01 21:22:00,
2013-01-01 14:37:00,44.5,19.0,30.22,SSW,207,5.0,8.0,36,0.00,,,0.00,415,weatherlink.com 1.10,2013-01-01 21:37:00,
2013-01-01 14:52:00,44.7,18.0,30.23,SSW,203,7.0,7.0,35,0.00,,,0.00,364,weatherlink.com 1.10,2013-01-01 21:52:00,
2013-01-01 15:07:00,44.1,19.0,30.22,SW,225,1.0,8.0,36,0.00,,,0.00,311,weatherlink.com 1.10,2013-01-01 22:07:00,
2013-01-01 15:22:00,44.1,19.0,30.23,South,190,3.0,9.0,36,0.00,,,0.00,311,weatherlink.com 1.10,2013-01-01 22:22:00,
2013-01-01 15:37:00,44.1,19.0,30.23,South,178,2.0,10.0,36,0.00,,,0.00,246,weatherlink.com 1.10,2013-01-01 22:37:00,
2013-01-01 15:52:00,43.8,18.0,30.25,SSW,196,1.0,9.0,36,0.00,,,0.00,199,weatherlink.com 1.10,2013-01-01 22:52:00,
2013-01-01 16:07:00,44.0,18.0,30.24,SSW,196,1.0,7.0,35,0.00,,,0.00,149,weatherlink.com 1.10,2013-01-01 23:07:00,
2013-01-01 16:22:00,43.9,17.0,30.24,SSW,197,4.0,7.0,34,0.00,,,0.00,104,weatherlink.com 1.10,2013-01-01 23:22:00,
2013-01-01 16:37:00,43.2,17.0,30.23,SSW,198,0.0,6.0,35,0.00,,,0.00,47,weatherlink.com 1.10,2013-01-01 23:37:00,
2013-01-01 16:52:00,42.1,17.0,30.22,SSW,198,0.0,0.0,37,0.00,,,0.00,18,weatherlink.com 1.10,2013-01-01 23:52:00,
2013-01-01 17:07:00,41.0,16.0,30.23,SSW,198,1.0,5.0,37,0.00,,,0.00,7,weatherlink.com 1.10,2013-01-02 00:07:00,
2013-01-01 17:22:00,40.0,17.0,30.25,SSW,198,1.0,3.0,39,0.00,,,0.00,0,weatherlink.com 1.10,2013-01-02 00:22:00,
2013-01-01 17:37:00,39.0,16.0,30.24,SSW,198,0.0,1.0,40,0.00,,,0.00,0,weatherlink.com 1.10,2013-01-02 00:37:00,
2013-01-01 17:52:00,38.2,16.0,30.25,SSW,198,0.0,1.0,41,0.00,,,0.00,0,weatherlink.com 1.10,2013-01-02 00:52:00,
2013-01-01 18:07:00,36.5,16.0,30.25,SSW,198,0.0,1.0,44,0.00,,,0.00,0,weatherlink.com 1.10,2013-01-02 01:07:00,
2013-01-01 18:22:00,34.1,17.0,30.26,SSW,198,0.0,0.0,49,0.00,,,0.00,0,weatherlink.com 1.10,2013-01-02 01:22:00,
2013-01-01 18:37:00,33.4,17.0,30.26,SSW,198,2.0,3.0,51,0.00,,,0.00,0,weatherlink.com 1.10,2013-01-02 01:37:00,
2013-01-01 18:52:00,33.0,17.0,30.26,SSE,156,2.0,5.0,51,0.00,,,0.00,0,weatherlink.com 1.10,2013-01-02 01:52:00,
2013-01-01 19:07:00,32.6,17.0,30.27,SSE,153,3.0,5.0,52,0.00,,,0.00,0,weatherlink.com 1.10,2013-01-02 02:07:00,
2013-01-01 19:22:00,32.9,16.0,30.27,SSE,153,4.0,5.0,51,0.00,,,0.00,0,weatherlink.com 1.10,2013-01-02 02:22:00,
2013-01-01 19:37:00,32.6,17.0,30.27,SE,144,4.0,5.0,52,0.00,,,0.00,0,weatherlink.com 1.10,2013-01-02 02:37:00,
2013-01-01 19:52:00,32.1,17.0,30.26,East,95,7.0,8.0,53,0.00,,,0.00,0,weatherlink.com 1.10,2013-01-02 02:52:00,
2013-01-01 20:07:00,32.1,17.0,30.27,East,91,6.0,7.0,53,0.00,,,0.00,0,weatherlink.com 1.10,2013-01-02 03:07:00,
2013-01-01 20:22:00,32.6,17.0,30.27,East,81,8.0,9.0,52,0.00,,,0.00,0,weatherlink.com 1.10,2013-01-02 03:22:00,
2013-01-01 20:37:00,31.9,16.0,30.26,ENE,77,7.0,7.0,53,0.00,,,0.00,0,weatherlink.com 1.10,2013-01-02 03:37:00,
2013-01-01 20:52:00,32.4,17.0,30.26,ENE,67,4.0,9.0,53,0.00,,,0.00,0,weatherlink.com 1.10,2013-01-02 03:52:00,
2013-01-01 21:07:00,32.3,17.0,30.27,ENE,67,3.0,8.0,53,0.00,,,0.00,0,weatherlink.com 1.10,2013-01-02 04:07:00,
2013-01-01 21:22:00,33.0,17.0,30.27,ENE,67,5.0,7.0,51,0.00,,,0.00,0,weatherlink.com 1.10,2013-01-02 04:22:00,
2013-01-01 21:37:00,32.0,16.0,30.27,ENE,67,7.0,8.0,53,0.00,,,0.00,0,weatherlink.com 1.10,2013-01-02 04:37:00,
2013-01-01 21:52:00,31.6,16.0,30.27,ENE,67,5.0,7.0,53,0.00,,,0.00,0,weatherlink.com 1.10,2013-01-02 04:52:00,
2013-01-01 22:07:00,32.0,16.0,30.28,ENE,67,1.0,5.0,53,0.00,,,0.00,0,weatherlink.com 1.10,2013-01-02 05:07:00,
2013-01-01 22:22:00,31.6,17.0,30.28,ENE,67,5.0,7.0,55,0.00,,,0.00,0,weatherlink.com 1.10,2013-01-02 05:22:00,
2013-01-01 22:37:00,30.9,17.0,30.28,ENE,67,5.0,7.0,56,0.00,,,0.00,0,weatherlink.com 1.10,2013-01-02 05:37:00,
2013-01-01 22:52:00,31.3,17.0,30.29,ENE,67,3.0,5.0,56,0.00,,,0.00,0,weatherlink.com 1.10,2013-01-02 05:52:00,
2013-01-01 23:07:00,30.8,16.0,30.29,ENE,67,4.0,5.0,55,0.00,,,0.00,0,weatherlink.com 1.10,2013-01-02 06:07:00,
2013-01-01 23:22:00,30.2,16.0,30.29,ENE,67,7.0,7.0,56,0.00,,,0.00,0,weatherlink.com 1.10,2013-01-02 06:22:00,
2013-01-01 23:37:00,29.9,16.0,30.29,ENE,67,4.0,7.0,57,0.00,,,0.00,0,weatherlink.com 1.10,2013-01-02 06:37:00,
2013-01-01 23:52:00,29.3,16.0,30.29,ENE,67,5.0,5.0,57,0.00,,,0.00,0,weatherlink.com 1.10,2013-01-02 06:52:00,